Hlavní strana
METAR-TAF:

METAR-TAF

Letiště :

Errachidia, Maroko

zeměpisná šířka: 31-56N, zeměpisná délka: 004-24W, výška: 1034 m

Aktuální stav počasí

Zpráva byla vytvořena před 2 hodinami a 39 minutami, v 16:00 UTC
Jižní vítr 9 kt, proměnlivý mezi jihojihovýchodním a jihozápadním
Teplota 27°C
Vlhkost vzduchu 12%
Tlak 1021 hPa
Viditelnost 10 km a více
Žádná oblačnost pod 1500 m, nevyskytují se cumulonimby.

METAR: GMFK 061600Z 19009KT 150V220 CAVOK 27/M05 Q1021 NOSIG

Čas: 19:39 (18:39 UTC)

Předpověď počasí

Zpráva byla vytvořena před 7 hodinami a 39 minutami, v 11:00 UTC
Předpověď platná od 06 v 12 UTC do 07 v 18 UTC
Západoseverozápadní vítr 8 kt
Viditelnost 10 km a více
Žádná oblačnost pod 1500 m, nevyskytují se cumulonimby.
Dočasný
od 06 v 18 UTC do 06 v 23 UTC
Polojasno ve výšce 2600 ft
Polojasno ve výšce 8000 ft

TAF: GMFK 061100Z 0612/0718 30008KT CAVOK TEMPO 0618/0623 SCT026 SCT080

Stav a předpovědi počasí z více než 4 000 letišť (zprávy METAR a TAF).

Červené a žluté tečky na mapě představují dostupné meteorologické stanice.

Když kurzor umístíte na tečku, zobrazí se název stanice.

Pak kliknutím zobrazíte stav a předpověď počasí.

Chcete-li změnit mapu, kliknutím na zelené tlačítko se znaménkem +mapu přiblížíte, kliknutím na zelené tlačítko se znaménkem – mapu oddálíte a kliknutím na zelené šipky přejdete na sousední mapy.


METAR-TAF: